createdAt,value
2023-09-12T00:02:25.192Z,67.54
2023-09-12T00:07:27.842Z,67.61
2023-09-12T00:12:30.494Z,67.58
2023-09-12T00:17:33.114Z,67.58
2023-09-12T00:22:35.711Z,67.65
2023-09-12T00:27:38.216Z,67.82
2023-09-12T00:32:41.006Z,68.04
2023-09-12T00:37:43.572Z,68.06
2023-09-12T00:42:46.374Z,68.20
2023-09-12T00:47:49.862Z,68.22
2023-09-12T00:52:54.648Z,68.44
2023-09-12T00:57:57.293Z,68.65
2023-09-12T01:03:00.007Z,68.05
2023-09-12T01:08:03.137Z,68.10
2023-09-12T01:13:06.745Z,68.26
2023-09-12T01:18:09.547Z,68.17
2023-09-12T01:23:22.295Z,68.62
2023-09-12T01:28:26.592Z,68.21
2023-09-12T01:33:29.872Z,68.26
2023-09-12T01:38:32.442Z,68.34
2023-09-12T01:43:37.937Z,69.51
2023-09-12T01:48:41.818Z,69.93
2023-09-12T01:53:46.586Z,69.72
2023-09-12T01:58:49.095Z,69.19
2023-09-12T02:03:51.872Z,68.82
2023-09-12T02:08:54.505Z,69.01
2023-09-12T02:13:57.093Z,68.71
2023-09-12T02:18:59.646Z,68.49
2023-09-12T02:24:02.433Z,68.80
2023-09-12T02:29:07.190Z,68.90
2023-09-12T02:34:09.797Z,68.69
2023-09-12T02:39:12.438Z,68.61
2023-09-12T02:44:15.406Z,68.55
2023-09-12T02:49:17.960Z,68.50
2023-09-12T02:54:20.518Z,68.54
2023-09-12T02:59:23.099Z,68.56
2023-09-12T03:04:29.724Z,68.59
2023-09-12T03:09:32.428Z,68.69
2023-09-12T03:14:35.119Z,68.80
2023-09-12T03:19:37.745Z,68.55
2023-09-12T03:24:40.628Z,68.69
2023-09-12T03:29:43.395Z,68.72
2023-09-12T03:34:48.783Z,68.83
2023-09-12T03:39:51.288Z,68.71
2023-09-12T03:44:53.796Z,68.84
2023-09-12T03:49:56.315Z,68.72
2023-09-12T03:55:01.815Z,68.65
2023-09-12T04:00:08.720Z,68.78
2023-09-12T04:05:11.491Z,68.71
2023-09-12T04:10:14.758Z,68.71
2023-09-12T04:15:17.781Z,68.70
2023-09-12T04:20:20.626Z,68.78
2023-09-12T04:25:23.177Z,68.82
2023-09-12T04:30:26.430Z,68.94
2023-09-12T04:35:29.191Z,69.02
2023-09-12T04:40:32.378Z,68.97
2023-09-12T04:45:35.356Z,68.94
2023-09-12T04:50:44.173Z,68.95
2023-09-12T04:55:46.737Z,68.77
2023-09-12T05:00:49.318Z,68.56
2023-09-12T05:05:51.958Z,68.52
2023-09-12T05:10:54.525Z,68.43
2023-09-12T05:16:00.497Z,68.05
2023-09-12T05:21:03.821Z,67.71
2023-09-12T05:26:07.259Z,67.52
2023-09-12T05:31:10.026Z,67.16
2023-09-12T05:36:12.829Z,66.73
2023-09-12T05:41:15.404Z,66.54
2023-09-12T05:46:18.044Z,66.25
2023-09-12T05:51:20.711Z,66.15
2023-09-12T05:56:23.293Z,66.35
2023-09-12T06:01:25.873Z,65.92
2023-09-12T06:06:29.086Z,65.38
2023-09-12T06:11:32.500Z,65.03
2023-09-12T06:16:35.129Z,64.55
2023-09-12T06:21:37.802Z,63.98
2023-09-12T06:26:41.775Z,63.31
2023-09-12T06:31:47.603Z,63.84
2023-09-12T06:36:50.440Z,62.52
2023-09-12T06:41:52.984Z,62.10
2023-09-12T06:46:55.646Z,61.63
2023-09-12T06:51:58.150Z,60.78
2023-09-12T06:57:00.946Z,58.80
2023-09-12T07:02:03.951Z,61.20
2023-09-12T07:07:07.039Z,57.01
2023-09-12T07:12:10.862Z,59.67
2023-09-12T07:17:14.763Z,60.71
2023-09-12T07:22:17.503Z,55.93
2023-09-12T07:27:20.163Z,57.72
2023-09-12T07:32:25.285Z,56.66
2023-09-12T07:37:27.893Z,56.46
2023-09-12T07:42:30.463Z,58.26
2023-09-12T07:47:34.056Z,56.63
2023-09-12T07:52:36.621Z,56.10
2023-09-12T07:57:39.243Z,56.45
2023-09-12T08:02:42.215Z,56.64
2023-09-12T08:07:45.305Z,56.72
2023-09-12T08:12:48.006Z,57.58
2023-09-12T08:17:53.131Z,58.56
2023-09-12T08:22:56.113Z,57.92
2023-09-12T08:27:58.716Z,55.78
2023-09-12T08:33:04.187Z,54.54
2023-09-12T08:38:07.126Z,54.93
2023-09-12T08:43:09.815Z,55.81
2023-09-12T08:48:13.888Z,55.40
2023-09-12T08:53:16.592Z,54.36
2023-09-12T08:58:19.971Z,54.26
2023-09-12T09:03:24.333Z,53.78
2023-09-12T09:08:29.217Z,53.92
2023-09-12T09:13:32.012Z,53.63
2023-09-12T09:18:53.702Z,51.30
2023-09-12T09:23:58.763Z,50.34
2023-09-12T09:29:04.414Z,49.28
2023-09-12T09:34:18.270Z,49.17
2023-09-12T09:39:32.725Z,49.48
2023-09-12T09:44:35.565Z,49.02
2023-09-12T09:49:38.351Z,48.68
2023-09-12T09:54:46.122Z,49.12
2023-09-12T09:59:52.773Z,48.48
2023-09-12T10:05:00.742Z,48.09
2023-09-12T10:10:05.165Z,47.07
2023-09-12T10:15:09.232Z,46.82
2023-09-12T10:20:17.149Z,46.68
2023-09-12T10:25:20.554Z,45.01
2023-09-12T10:30:24.330Z,45.48
2023-09-12T10:35:28.230Z,45.40
2023-09-12T10:40:33.232Z,45.04
2023-09-12T10:45:37.816Z,45.72
2023-09-12T10:50:41.451Z,44.98
2023-09-12T10:56:00.189Z,43.53
2023-09-12T11:01:34.668Z,43.99
2023-09-12T11:06:37.345Z,44.06
2023-09-12T11:11:40.953Z,43.89
2023-09-12T11:16:44.932Z,43.83
2023-09-12T11:21:50.111Z,43.51
2023-09-12T11:27:01.416Z,44.07
2023-09-12T11:32:06.637Z,43.11
2023-09-12T11:37:10.423Z,43.05
2023-09-12T11:42:15.054Z,43.32
2023-09-12T11:47:18.896Z,43.38
2023-09-12T11:52:24.947Z,42.72
2023-09-12T11:57:28.934Z,42.66
2023-09-12T12:02:34.633Z,43.07
2023-09-12T12:07:37.268Z,43.40
2023-09-12T12:12:41.121Z,42.66
2023-09-12T12:17:44.294Z,42.11
2023-09-12T12:22:47.089Z,42.05
2023-09-12T12:27:49.661Z,42.61
2023-09-12T12:32:52.996Z,42.55
2023-09-12T12:38:06.672Z,42.47
2023-09-12T12:43:18.606Z,42.22
2023-09-12T12:48:37.380Z,42.21
2023-09-12T12:53:52.749Z,41.76
2023-09-12T12:58:58.773Z,41.54
2023-09-12T13:04:01.414Z,41.44
2023-09-12T13:09:06.483Z,41.31
2023-09-12T13:14:12.973Z,41.51
2023-09-12T13:19:15.878Z,41.76
2023-09-12T13:24:18.388Z,41.48
2023-09-12T13:29:21.052Z,41.53
2023-09-12T13:34:23.905Z,41.64
2023-09-12T13:39:26.532Z,41.19
2023-09-12T13:44:29.176Z,41.31
2023-09-12T13:49:31.747Z,41.16
2023-09-12T13:54:34.429Z,41.24
2023-09-12T13:59:45.063Z,40.95
2023-09-12T14:09:53.609Z,41.29
2023-09-12T14:15:05.962Z,41.74
2023-09-12T14:20:11.599Z,41.58
2023-09-12T14:25:16.094Z,41.28
2023-09-12T14:30:21.666Z,41.53
2023-09-12T14:35:24.452Z,41.24
2023-09-12T14:40:28.389Z,41.10
2023-09-12T14:45:32.550Z,41.33
2023-09-12T14:50:42.682Z,42.02
2023-09-12T14:55:46.596Z,42.01
2023-09-12T15:00:49.292Z,42.08
2023-09-12T15:05:52.038Z,41.77
2023-09-12T15:10:54.741Z,41.97
2023-09-12T15:15:57.422Z,42.17
2023-09-12T15:21:00.383Z,42.55
2023-09-12T15:26:03.162Z,42.47
2023-09-12T15:31:05.796Z,42.58
2023-09-12T15:36:08.408Z,42.47
2023-09-12T15:41:11.488Z,42.64
2023-09-12T15:46:28.026Z,43.08
2023-09-12T15:51:35.083Z,43.20
2023-09-12T15:56:37.757Z,43.59
2023-09-12T16:01:42.164Z,44.16
2023-09-12T16:06:44.767Z,44.49
2023-09-12T16:11:47.601Z,44.51
2023-09-12T16:16:50.385Z,44.79
2023-09-12T16:21:53.163Z,44.99
2023-09-12T16:26:57.460Z,45.56
2023-09-12T16:32:02.051Z,46.55
2023-09-12T16:37:12.346Z,47.79
2023-09-12T16:42:19.047Z,49.74
2023-09-12T16:47:21.605Z,51.14
2023-09-12T16:52:25.278Z,52.27
2023-09-12T16:57:28.187Z,53.26
2023-09-12T17:02:36.090Z,53.82
2023-09-12T17:07:38.845Z,54.48
2023-09-12T17:12:42.041Z,55.32
2023-09-12T17:17:46.400Z,56.03
2023-09-12T17:22:49.644Z,57.01
2023-09-12T17:27:52.853Z,57.67
2023-09-12T17:32:55.517Z,58.33
2023-09-12T17:37:58.127Z,58.88
2023-09-12T17:43:00.679Z,59.20
2023-09-12T17:48:05.075Z,60.21
2023-09-12T17:53:08.134Z,61.07
2023-09-12T17:58:10.795Z,64.34
2023-09-12T18:03:13.626Z,65.85
2023-09-12T18:08:18.462Z,65.00
2023-09-12T18:13:21.035Z,64.99
2023-09-12T18:18:23.568Z,64.03
2023-09-12T18:23:26.208Z,63.44
2023-09-12T18:28:47.156Z,63.03
2023-09-12T18:33:49.921Z,62.78
2023-09-12T18:38:53.568Z,62.38
2023-09-12T18:43:57.272Z,62.15
2023-09-12T18:48:59.878Z,62.06
2023-09-12T18:54:02.871Z,62.10
2023-09-12T18:59:05.481Z,61.77
2023-09-12T19:04:33.285Z,61.73
2023-09-12T19:09:36.034Z,61.84
2023-09-12T19:14:38.691Z,61.71
2023-09-12T19:19:42.607Z,61.69
2023-09-12T19:24:45.374Z,61.78
2023-09-12T19:29:53.255Z,61.65
2023-09-12T19:34:55.940Z,61.64
2023-09-12T19:39:58.633Z,61.48
2023-09-12T19:45:02.317Z,61.27
2023-09-12T19:50:05.751Z,61.55
2023-09-12T19:55:08.691Z,61.56
2023-09-12T20:00:13.543Z,61.76
2023-09-12T20:05:21.440Z,61.91
2023-09-12T20:10:24.311Z,62.13
2023-09-12T20:15:26.982Z,62.15
2023-09-12T20:20:35.411Z,62.19
2023-09-12T20:25:38.099Z,62.37
2023-09-12T20:30:40.771Z,62.44
2023-09-12T20:35:43.458Z,62.55
2023-09-12T20:40:48.430Z,62.45
2023-09-12T20:45:54.295Z,62.68
2023-09-12T20:50:57.008Z,62.91
2023-09-12T20:55:59.535Z,62.96
2023-09-12T21:01:02.507Z,62.82
2023-09-12T21:06:05.204Z,63.04
2023-09-12T21:11:09.542Z,63.17
2023-09-12T21:16:13.160Z,63.39
2023-09-12T21:21:18.788Z,63.51
2023-09-12T21:26:21.504Z,63.53
2023-09-12T21:31:26.098Z,63.45
2023-09-12T21:36:42.677Z,63.92
2023-09-12T21:41:45.486Z,64.15
2023-09-12T21:46:51.825Z,64.29
2023-09-12T21:51:55.771Z,64.27
2023-09-12T21:57:00.292Z,64.26
2023-09-12T22:02:16.880Z,64.36
2023-09-12T22:07:19.572Z,64.50
2023-09-12T22:12:22.153Z,64.60
2023-09-12T22:17:32.675Z,64.67
2023-09-12T22:22:37.498Z,64.72
2023-09-12T22:27:40.903Z,64.86
2023-09-12T22:32:44.241Z,64.81
2023-09-12T22:37:47.120Z,64.76
2023-09-12T22:42:49.802Z,64.99
2023-09-12T22:47:52.406Z,65.16
2023-09-12T22:52:57.343Z,65.06
2023-09-12T22:58:00.039Z,64.74
2023-09-12T23:03:06.774Z,64.82
2023-09-12T23:08:10.205Z,64.94
2023-09-12T23:13:18.331Z,65.56
2023-09-12T23:18:22.129Z,65.62
2023-09-12T23:23:28.394Z,65.56
2023-09-12T23:28:33.026Z,65.63
2023-09-12T23:33:35.614Z,65.67
2023-09-12T23:38:39.566Z,65.88
2023-09-12T23:43:43.136Z,65.76
2023-09-12T23:48:46.155Z,65.93
2023-09-12T23:53:48.986Z,66.00
2023-09-12T23:58:52.810Z,66.34
